createdAt,value
2022-09-09T00:01:25.632Z,68.65
2022-09-09T00:04:00.214Z,69.00
2022-09-09T00:06:36.330Z,63.92
2022-09-09T00:09:07.841Z,66.60
2022-09-09T00:11:47.568Z,68.13
2022-09-09T00:14:23.533Z,66.80
2022-09-09T00:16:56.530Z,63.13
2022-09-09T00:19:47.198Z,68.80
2022-09-09T00:22:22.933Z,65.35
2022-09-09T00:24:54.843Z,68.10
2022-09-09T00:27:48.571Z,70.00
2022-09-09T00:30:20.707Z,65.60
2022-09-09T00:32:48.799Z,67.78
2022-09-09T00:35:24.740Z,65.40
2022-09-09T00:37:54.372Z,65.85
2022-09-09T00:40:34.134Z,69.93
2022-09-09T00:43:26.722Z,68.68
2022-09-09T00:46:51.874Z,65.68
2022-09-09T00:49:40.026Z,65.43
2022-09-09T00:52:19.302Z,66.82
2022-09-09T00:54:52.291Z,68.20
2022-09-09T00:57:33.660Z,66.35
2022-09-09T01:00:25.938Z,67.80
2022-09-09T01:03:04.359Z,63.78
2022-09-09T01:05:33.599Z,65.78
2022-09-09T01:08:04.135Z,67.35
2022-09-09T01:10:42.560Z,67.13
2022-09-09T01:13:24.706Z,67.03
2022-09-09T01:15:56.328Z,68.90
2022-09-09T01:18:32.015Z,67.82
2022-09-09T01:21:24.711Z,68.90
2022-09-09T01:24:14.395Z,71.07
2022-09-09T01:26:43.643Z,68.53
2022-09-09T01:29:14.324Z,69.93
2022-09-09T01:31:42.584Z,70.43
2022-09-09T01:34:13.641Z,70.82
2022-09-09T01:36:55.222Z,68.70
2022-09-09T01:39:22.317Z,68.30
2022-09-09T01:41:48.824Z,67.05
2022-09-09T01:44:15.696Z,70.43
2022-09-09T01:46:42.080Z,64.63
2022-09-09T01:49:09.864Z,64.38
2022-09-09T01:51:38.789Z,67.15
2022-09-09T01:54:06.034Z,68.40
2022-09-09T01:57:01.741Z,64.53
2022-09-09T01:59:37.378Z,68.10
2022-09-09T02:02:16.635Z,66.72
2022-09-09T02:04:46.611Z,68.30
2022-09-09T02:07:35.701Z,66.07
2022-09-09T02:10:11.322Z,64.78
2022-09-09T02:12:42.603Z,67.43
2022-09-09T02:15:36.536Z,63.95
2022-09-09T02:18:09.225Z,66.28
2022-09-09T02:20:39.199Z,64.13
2022-09-09T02:23:09.539Z,62.85
2022-09-09T02:25:38.146Z,62.30
2022-09-09T02:28:08.799Z,63.38
2022-09-09T02:30:37.345Z,64.20
2022-09-09T02:33:08.375Z,65.95
2022-09-09T02:35:38.542Z,66.07
2022-09-09T02:40:33.666Z,59.08
2022-09-09T02:43:01.084Z,63.08
2022-09-09T02:45:37.426Z,66.43
2022-09-09T02:48:10.311Z,66.65
2022-09-09T02:50:49.019Z,63.97
2022-09-09T02:53:23.845Z,62.42
2022-09-09T02:56:07.187Z,59.75
2022-09-09T02:58:34.358Z,59.42
2022-09-09T03:01:03.794Z,61.53
2022-09-09T03:03:31.266Z,61.08
2022-09-09T03:05:58.015Z,60.22
2022-09-09T03:08:24.543Z,59.53
2022-09-09T03:10:50.929Z,60.72
2022-09-09T03:13:20.223Z,58.95
2022-09-09T03:15:46.587Z,58.03
2022-09-09T03:18:12.991Z,57.05
2022-09-09T03:20:39.383Z,57.97
2022-09-09T03:23:05.950Z,60.92
2022-09-09T03:25:32.973Z,60.88
2022-09-09T03:27:59.376Z,63.83
2022-09-09T03:30:27.975Z,61.35
2022-09-09T03:32:54.639Z,60.85
2022-09-09T03:35:21.094Z,60.65
2022-09-09T03:37:47.932Z,59.33
2022-09-09T03:40:15.004Z,61.45
2022-09-09T03:42:41.500Z,60.65
2022-09-09T03:45:10.313Z,61.97
2022-09-09T03:47:37.064Z,60.67
2022-09-09T03:50:05.208Z,59.50
2022-09-09T03:52:31.724Z,60.40
2022-09-09T03:54:58.318Z,57.83
2022-09-09T03:57:24.813Z,55.53
2022-09-09T03:59:51.151Z,54.03
2022-09-09T04:02:17.662Z,54.05
2022-09-09T04:04:44.114Z,55.17
2022-09-09T04:07:10.924Z,54.92
2022-09-09T04:09:37.355Z,52.60
2022-09-09T04:12:03.907Z,54.50
2022-09-09T04:14:30.286Z,51.75
2022-09-09T04:16:59.190Z,53.15
2022-09-09T04:19:25.834Z,52.00
2022-09-09T04:21:52.619Z,51.65
2022-09-09T04:24:19.823Z,53.35
2022-09-09T04:26:46.467Z,52.92
2022-09-09T04:29:13.010Z,52.53
2022-09-09T04:31:42.882Z,52.30
2022-09-09T04:34:12.391Z,51.55
2022-09-09T04:36:40.170Z,52.60
2022-09-09T04:39:07.038Z,52.67
2022-09-09T04:41:33.502Z,53.10
2022-09-09T04:44:01.722Z,52.22
2022-09-09T04:46:28.194Z,51.70
2022-09-09T04:48:54.753Z,51.65
2022-09-09T04:51:21.253Z,49.63
2022-09-09T04:53:48.562Z,50.30
2022-09-09T04:56:16.996Z,49.88
2022-09-09T04:58:43.997Z,49.95
2022-09-09T05:01:16.969Z,51.25
2022-09-09T05:03:43.449Z,48.08
2022-09-09T05:06:12.072Z,49.78
2022-09-09T05:08:39.423Z,48.63
2022-09-09T05:11:20.990Z,48.97
2022-09-09T05:13:48.048Z,46.58
2022-09-09T05:16:15.288Z,46.80
2022-09-09T05:18:43.678Z,46.72
2022-09-09T05:21:11.361Z,47.10
2022-09-09T05:23:38.539Z,48.05
2022-09-09T05:26:06.221Z,48.58
2022-09-09T05:28:36.351Z,45.78
2022-09-09T05:33:41.563Z,43.88
2022-09-09T05:36:17.139Z,46.40
2022-09-09T05:38:44.917Z,46.08
2022-09-09T05:41:18.313Z,46.97
2022-09-09T05:43:46.541Z,46.05
2022-09-09T05:46:15.733Z,47.20
2022-09-09T05:48:46.897Z,47.13
2022-09-09T05:51:20.655Z,47.60
2022-09-09T05:53:47.984Z,48.25
2022-09-09T05:56:30.644Z,46.00
2022-09-09T05:59:02.563Z,44.42
2022-09-09T06:01:36.798Z,44.95
2022-09-09T06:04:05.135Z,44.78
2022-09-09T06:06:37.944Z,42.63
2022-09-09T06:09:12.456Z,42.50
2022-09-09T06:11:40.917Z,41.80
2022-09-09T06:14:08.554Z,40.03
2022-09-09T06:16:36.210Z,39.88
2022-09-09T06:19:06.481Z,38.95
2022-09-09T06:24:04.986Z,37.83
2022-09-09T06:26:34.432Z,37.55
2022-09-09T06:29:03.637Z,38.08
2022-09-09T06:31:32.694Z,38.30
2022-09-09T06:34:00.343Z,37.33
2022-09-09T06:36:32.569Z,36.88
2022-09-09T06:39:00.589Z,36.88
2022-09-09T06:41:32.983Z,38.22
2022-09-09T06:44:00.132Z,37.75
2022-09-09T06:46:34.533Z,36.75
2022-09-09T06:49:03.844Z,37.55
2022-09-09T06:51:36.384Z,36.50
2022-09-09T06:54:05.691Z,36.75
2022-09-09T06:56:39.311Z,36.30
2022-09-09T06:59:10.215Z,36.42
2022-09-09T07:01:42.172Z,36.97
2022-09-09T07:04:12.297Z,37.08
2022-09-09T07:06:44.324Z,36.63
2022-09-09T07:09:14.042Z,36.92
2022-09-09T07:11:44.565Z,36.30
2022-09-09T07:14:15.099Z,37.20
2022-09-09T07:16:43.142Z,36.10
2022-09-09T07:19:12.587Z,36.33
2022-09-09T07:21:43.325Z,36.13
2022-09-09T07:24:14.880Z,34.58
2022-09-09T07:26:44.107Z,35.00
2022-09-09T07:29:18.498Z,35.10
2022-09-09T07:31:47.049Z,34.22
2022-09-09T07:34:13.603Z,34.28
2022-09-09T07:36:43.018Z,33.67
2022-09-09T07:39:14.180Z,32.75
2022-09-09T07:41:48.854Z,32.83
2022-09-09T07:44:18.215Z,32.45
2022-09-09T07:46:46.366Z,32.13
2022-09-09T07:49:13.508Z,32.70
2022-09-09T07:51:42.339Z,31.48
2022-09-09T07:54:12.059Z,31.10
2022-09-09T07:56:40.407Z,29.40
2022-09-09T07:59:07.896Z,27.75
2022-09-09T08:01:40.086Z,26.67
2022-09-09T08:04:18.251Z,25.27
2022-09-09T08:06:51.568Z,24.77
2022-09-09T08:09:18.287Z,22.52
2022-09-09T08:11:45.276Z,21.63
2022-09-09T08:14:12.803Z,20.58
2022-09-09T08:16:45.105Z,19.88
2022-09-09T08:19:11.760Z,18.45
2022-09-09T08:21:41.047Z,17.83
2022-09-09T08:24:08.868Z,17.40
2022-09-09T08:26:38.250Z,17.55
2022-09-09T08:29:07.676Z,16.40
2022-09-09T08:31:38.167Z,16.77
2022-09-09T08:34:05.924Z,15.15
2022-09-09T08:36:35.936Z,15.50
2022-09-09T08:39:03.177Z,14.88
2022-09-09T08:42:01.370Z,14.82
2022-09-09T08:44:31.889Z,14.15
2022-09-09T08:47:24.709Z,13.50
2022-09-09T08:50:20.791Z,13.13
2022-09-09T08:52:56.479Z,13.85
2022-09-09T08:55:28.943Z,13.50
2022-09-09T08:57:58.740Z,13.65
2022-09-09T09:00:36.371Z,12.80
2022-09-09T09:03:28.680Z,13.05
2022-09-09T09:06:10.413Z,13.32
2022-09-09T09:08:58.648Z,12.88
2022-09-09T09:11:25.223Z,12.45
2022-09-09T09:13:58.021Z,12.18
2022-09-09T09:17:02.477Z,13.10
2022-09-09T09:19:31.741Z,12.65
2022-09-09T09:22:00.829Z,11.23
2022-09-09T09:24:39.920Z,11.77
2022-09-09T09:27:21.912Z,11.48
2022-09-09T09:30:21.061Z,11.30
2022-09-09T09:32:41.944Z,11.02
2022-09-09T09:35:13.555Z,11.07
2022-09-09T09:40:28.571Z,11.20
2022-09-09T09:43:08.774Z,10.73
2022-09-09T09:46:00.981Z,10.50
2022-09-09T09:48:35.824Z,10.40
2022-09-09T09:51:11.466Z,10.50
2022-09-09T09:53:39.813Z,10.30
2022-09-09T09:56:09.096Z,9.98
2022-09-09T09:58:47.467Z,9.80
2022-09-09T10:01:25.774Z,10.10
2022-09-09T10:03:54.770Z,9.57
2022-09-09T10:06:35.911Z,56.55
2022-09-09T10:09:05.236Z,11.63
2022-09-09T10:11:39.396Z,10.02
2022-09-09T10:14:20.957Z,9.68
2022-09-09T10:17:28.105Z,10.02
2022-09-09T10:20:36.284Z,10.57
2022-09-09T10:23:37.826Z,9.43
2022-09-09T10:26:38.365Z,8.80
2022-09-09T10:29:26.030Z,8.77
2022-09-09T10:32:07.494Z,8.70
2022-09-09T10:34:53.180Z,9.07
2022-09-09T10:37:43.890Z,7.80
2022-09-09T10:40:43.191Z,8.50
2022-09-09T10:43:27.625Z,8.10
2022-09-09T10:46:03.584Z,7.80
2022-09-09T10:48:59.929Z,7.80
2022-09-09T10:52:04.888Z,7.35
2022-09-09T10:54:42.938Z,7.90
2022-09-09T10:57:26.356Z,7.80
2022-09-09T11:00:05.254Z,8.73
2022-09-09T11:02:36.886Z,9.40
2022-09-09T11:05:17.229Z,9.35
2022-09-09T11:08:00.178Z,9.57
2022-09-09T11:11:04.768Z,9.50
2022-09-09T11:13:46.818Z,9.82
2022-09-09T11:16:20.702Z,9.57
2022-09-09T11:18:48.317Z,9.60
2022-09-09T11:21:27.918Z,9.80
2022-09-09T11:24:03.343Z,9.80
2022-09-09T11:26:37.020Z,9.65
2022-09-09T11:29:51.420Z,9.50
2022-09-09T11:33:03.031Z,10.45
2022-09-09T11:35:39.438Z,9.48
2022-09-09T11:38:23.967Z,9.50
2022-09-09T11:41:03.602Z,9.50
2022-09-09T11:43:39.781Z,8.27
2022-09-09T11:46:06.707Z,8.50
2022-09-09T11:48:36.650Z,8.60
2022-09-09T11:51:26.785Z,8.70
2022-09-09T11:53:58.266Z,8.88
2022-09-09T11:56:28.288Z,8.32
2022-09-09T11:58:59.245Z,8.25
2022-09-09T12:01:42.574Z,8.20
2022-09-09T12:04:30.759Z,8.73
2022-09-09T12:07:01.780Z,8.80
2022-09-09T12:09:59.841Z,8.77
2022-09-09T12:12:32.792Z,8.52
2022-09-09T12:15:04.278Z,8.40
2022-09-09T12:17:34.267Z,9.18
2022-09-09T12:20:20.271Z,8.63
2022-09-09T12:22:52.635Z,9.50
2022-09-09T12:25:40.953Z,9.25
2022-09-09T12:28:18.844Z,8.52
2022-09-09T12:30:52.834Z,9.00
2022-09-09T12:33:20.266Z,8.57
2022-09-09T12:35:55.513Z,9.10
2022-09-09T12:38:34.930Z,9.30
2022-09-09T12:41:01.469Z,8.88
2022-09-09T12:43:29.598Z,8.63
2022-09-09T12:46:01.427Z,8.48
2022-09-09T12:48:46.688Z,8.52
2022-09-09T12:51:26.119Z,8.75
2022-09-09T12:53:53.106Z,8.73
2022-09-09T12:56:22.284Z,8.80
2022-09-09T12:58:52.548Z,9.02
2022-09-09T13:01:26.303Z,8.95
2022-09-09T13:03:53.935Z,9.88
2022-09-09T13:06:28.866Z,10.30
2022-09-09T13:09:01.015Z,10.10
2022-09-09T13:11:35.994Z,10.05
2022-09-09T13:14:03.258Z,10.10
2022-09-09T13:16:33.429Z,9.90
2022-09-09T13:19:08.137Z,11.68
2022-09-09T13:21:40.892Z,12.45
2022-09-09T13:24:32.067Z,12.13
2022-09-09T13:27:21.639Z,11.07
2022-09-09T13:29:58.048Z,11.32
2022-09-09T13:32:27.850Z,10.05
2022-09-09T13:35:02.495Z,9.45
2022-09-09T13:37:37.790Z,9.25
2022-09-09T13:40:07.196Z,10.00
2022-09-09T13:42:40.105Z,9.90
2022-09-09T13:45:07.138Z,9.63
2022-09-09T13:47:35.903Z,9.50
2022-09-09T13:50:34.952Z,9.30
2022-09-09T13:53:01.417Z,9.18
2022-09-09T13:55:29.696Z,8.90
2022-09-09T13:58:04.350Z,8.80
2022-09-09T14:00:33.056Z,9.27
2022-09-09T14:03:02.533Z,8.38
2022-09-09T14:05:30.855Z,8.70
2022-09-09T14:07:58.982Z,9.00
2022-09-09T14:10:25.321Z,9.30
2022-09-09T14:12:52.044Z,9.00
2022-09-09T14:15:18.679Z,9.23
2022-09-09T14:17:45.136Z,9.98
2022-09-09T14:20:13.102Z,10.27
2022-09-09T14:22:40.260Z,10.77
2022-09-09T14:25:07.607Z,10.65
2022-09-09T14:27:34.601Z,10.98
2022-09-09T14:30:01.828Z,10.25
2022-09-09T14:32:28.734Z,10.80
2022-09-09T14:34:55.142Z,11.57
2022-09-09T14:37:21.741Z,11.77
2022-09-09T14:39:48.566Z,12.60
2022-09-09T14:42:15.119Z,12.50
2022-09-09T14:44:41.701Z,13.05
2022-09-09T14:47:09.148Z,12.98
2022-09-09T14:49:36.205Z,13.13
2022-09-09T14:52:03.406Z,12.70
2022-09-09T14:54:30.084Z,13.30
2022-09-09T14:56:58.072Z,12.95
2022-09-09T14:59:24.634Z,12.35
2022-09-09T15:01:51.209Z,12.05
2022-09-09T15:04:17.878Z,12.50
2022-09-09T15:06:47.976Z,11.90
2022-09-09T15:11:41.055Z,10.90
2022-09-09T15:14:09.398Z,11.50
2022-09-09T15:16:36.512Z,11.70
2022-09-09T15:19:03.845Z,11.68
2022-09-09T15:21:33.047Z,12.02
2022-09-09T15:24:00.222Z,12.47
2022-09-09T15:26:28.065Z,12.13
2022-09-09T15:28:55.728Z,13.30
2022-09-09T15:31:24.743Z,13.95
2022-09-09T15:34:02.029Z,14.10
2022-09-09T15:36:29.790Z,13.90
2022-09-09T15:38:56.975Z,14.65
2022-09-09T15:41:24.539Z,15.10
2022-09-09T15:43:53.028Z,15.18
2022-09-09T15:46:33.253Z,14.95
2022-09-09T15:49:22.913Z,14.45
2022-09-09T15:52:03.205Z,14.52
2022-09-09T15:54:33.034Z,13.93
2022-09-09T15:57:02.111Z,14.10
2022-09-09T15:59:30.696Z,13.52
2022-09-09T16:01:57.666Z,13.82
2022-09-09T16:04:25.598Z,13.25
2022-09-09T16:06:59.377Z,12.80
2022-09-09T16:09:27.085Z,13.18
2022-09-09T16:11:54.920Z,12.13
2022-09-09T16:14:21.966Z,12.98
2022-09-09T16:16:49.266Z,12.88
2022-09-09T16:19:16.840Z,12.27
2022-09-09T16:21:51.409Z,11.88
2022-09-09T16:24:20.311Z,12.05
2022-09-09T16:26:49.918Z,10.88
2022-09-09T16:29:20.655Z,10.90
2022-09-09T16:31:47.847Z,9.90
2022-09-09T16:34:15.779Z,10.52
2022-09-09T16:36:43.308Z,9.93
2022-09-09T16:39:12.342Z,9.77
2022-09-09T16:41:40.482Z,10.00
2022-09-09T16:44:09.372Z,10.00
2022-09-09T16:46:39.862Z,9.63
2022-09-09T16:49:08.610Z,9.70
2022-09-09T16:51:38.572Z,9.80
2022-09-09T16:54:09.625Z,9.23
2022-09-09T16:56:44.146Z,9.70
2022-09-09T16:59:16.727Z,9.32
2022-09-09T17:01:48.628Z,9.48
2022-09-09T17:04:21.343Z,9.60
2022-09-09T17:06:53.732Z,9.98
2022-09-09T17:09:21.220Z,9.60
2022-09-09T17:11:48.872Z,9.40
2022-09-09T17:14:18.427Z,9.48
2022-09-09T17:16:45.199Z,9.30
2022-09-09T17:19:12.499Z,9.55
2022-09-09T17:21:54.508Z,9.60
2022-09-09T17:24:27.462Z,9.30
2022-09-09T17:26:55.286Z,9.43
2022-09-09T17:29:22.189Z,9.48
2022-09-09T17:31:48.521Z,9.05
2022-09-09T17:34:15.249Z,9.60
2022-09-09T17:36:41.908Z,9.38
2022-09-09T17:39:08.344Z,9.57
2022-09-09T17:41:39.406Z,9.27
2022-09-09T17:46:41.842Z,9.30
2022-09-09T17:49:12.886Z,9.65
2022-09-09T17:51:41.591Z,10.00
2022-09-09T17:54:10.756Z,9.63
2022-09-09T17:56:38.665Z,9.80
2022-09-09T17:59:07.220Z,10.13
2022-09-09T18:01:36.336Z,10.18
2022-09-09T18:04:06.223Z,9.52
2022-09-09T18:06:39.188Z,11.15
2022-09-09T18:09:08.601Z,10.05
2022-09-09T18:11:43.058Z,11.10
2022-09-09T18:14:12.766Z,10.10
2022-09-09T18:16:40.766Z,10.65
2022-09-09T18:19:12.396Z,11.43
2022-09-09T18:21:39.191Z,11.13
2022-09-09T18:24:06.890Z,10.82
2022-09-09T18:26:35.231Z,33.67
2022-09-09T18:29:06.527Z,21.38
2022-09-09T18:31:34.253Z,15.25
2022-09-09T18:34:03.582Z,12.13
2022-09-09T18:36:38.983Z,12.03
2022-09-09T18:39:08.080Z,11.23
2022-09-09T18:41:37.232Z,11.65
2022-09-09T18:44:09.161Z,12.02
2022-09-09T18:46:37.627Z,12.05
2022-09-09T18:49:05.958Z,13.05
2022-09-09T18:51:37.170Z,12.30
2022-09-09T18:54:11.829Z,11.65
2022-09-09T18:56:38.924Z,12.73
2022-09-09T18:59:08.358Z,12.13
2022-09-09T19:01:35.712Z,12.30
2022-09-09T19:04:04.232Z,12.45
2022-09-09T19:06:32.553Z,13.18
2022-09-09T19:09:03.140Z,14.05
2022-09-09T19:11:30.487Z,13.32
2022-09-09T19:14:02.414Z,13.52
2022-09-09T19:16:31.526Z,14.23
2022-09-09T19:19:00.761Z,14.25
2022-09-09T19:21:30.226Z,14.00
2022-09-09T19:24:06.320Z,14.20
2022-09-09T19:26:40.680Z,13.45
2022-09-09T19:29:14.364Z,13.93
2022-09-09T19:31:55.156Z,15.10
2022-09-09T19:34:28.813Z,14.52
2022-09-09T19:36:55.441Z,15.00
2022-09-09T19:39:21.857Z,15.27
2022-09-09T19:41:49.101Z,17.60
2022-09-09T19:44:17.080Z,15.70
2022-09-09T19:46:46.567Z,16.45
2022-09-09T19:49:13.493Z,17.35
2022-09-09T19:51:40.032Z,17.17
2022-09-09T19:54:09.159Z,17.58
2022-09-09T19:56:37.849Z,17.50
2022-09-09T19:59:06.315Z,17.20
2022-09-09T20:01:40.394Z,16.88
2022-09-09T20:04:07.995Z,17.35
2022-09-09T20:06:40.499Z,18.05
2022-09-09T20:09:10.451Z,17.85
2022-09-09T20:11:38.454Z,17.02
2022-09-09T20:14:05.288Z,17.85
2022-09-09T20:16:31.956Z,17.95
2022-09-09T20:19:02.141Z,18.75
2022-09-09T20:24:00.854Z,18.33
2022-09-09T20:26:30.367Z,19.35
2022-09-09T20:28:56.781Z,19.33
2022-09-09T20:31:26.449Z,20.02
2022-09-09T20:33:54.882Z,21.15
2022-09-09T20:36:25.186Z,18.90
2022-09-09T20:38:54.655Z,19.98
2022-09-09T20:41:22.740Z,20.17
2022-09-09T20:43:53.635Z,20.35
2022-09-09T20:46:22.900Z,21.13
2022-09-09T20:48:51.342Z,20.87
2022-09-09T20:51:20.270Z,21.30
2022-09-09T20:53:47.461Z,20.92
2022-09-09T20:56:16.892Z,20.67
2022-09-09T20:58:43.837Z,21.77
2022-09-09T21:01:15.241Z,20.10
2022-09-09T21:03:41.639Z,21.45
2022-09-09T21:06:08.686Z,21.00
2022-09-09T21:08:36.048Z,20.92
2022-09-09T21:11:03.609Z,21.25
2022-09-09T21:13:31.395Z,20.27
2022-09-09T21:15:58.562Z,20.60
2022-09-09T21:18:27.309Z,20.05
2022-09-09T21:20:54.264Z,22.02
2022-09-09T21:23:21.223Z,22.42
2022-09-09T21:25:48.075Z,22.20
2022-09-09T21:28:15.465Z,21.83
2022-09-09T21:30:44.225Z,22.80
2022-09-09T21:33:11.496Z,21.20
2022-09-09T21:35:39.520Z,22.20
2022-09-09T21:38:07.594Z,20.80
2022-09-09T21:40:37.917Z,22.70
2022-09-09T21:43:06.124Z,22.60
2022-09-09T21:45:35.803Z,23.52
2022-09-09T21:48:02.319Z,23.75
2022-09-09T21:50:29.339Z,23.40
2022-09-09T21:52:55.981Z,23.02
2022-09-09T21:55:22.651Z,23.42
2022-09-09T21:57:50.358Z,22.55
2022-09-09T22:00:18.128Z,23.77
2022-09-09T22:02:44.957Z,21.80
2022-09-09T22:05:12.883Z,23.10
2022-09-09T22:07:40.041Z,21.65
2022-09-09T22:10:07.654Z,22.38
2022-09-09T22:12:35.078Z,21.60
2022-09-09T22:15:01.853Z,21.65
2022-09-09T22:17:28.283Z,20.60
2022-09-09T22:19:54.772Z,21.10
2022-09-09T22:22:21.259Z,22.92
2022-09-09T22:24:47.596Z,21.85
2022-09-09T22:27:15.666Z,21.70
2022-09-09T22:29:42.412Z,21.80
2022-09-09T22:32:10.142Z,21.80
2022-09-09T22:34:37.772Z,21.77
2022-09-09T22:37:05.824Z,21.25
2022-09-09T22:39:32.597Z,21.88
2022-09-09T22:41:59.659Z,21.95
2022-09-09T22:44:26.899Z,22.35
2022-09-09T22:46:56.434Z,21.50
2022-09-09T22:49:23.600Z,21.00
2022-09-09T22:51:50.125Z,19.92
2022-09-09T22:54:21.631Z,20.33
2022-09-09T22:56:49.646Z,19.98
2022-09-09T22:59:16.163Z,20.02
2022-09-09T23:01:42.945Z,19.58
2022-09-09T23:04:09.670Z,19.35
2022-09-09T23:06:38.604Z,18.80
2022-09-09T23:09:05.397Z,18.67
2022-09-09T23:11:36.985Z,18.38
2022-09-09T23:14:06.543Z,18.30
2022-09-09T23:16:38.199Z,18.33
2022-09-09T23:19:09.989Z,17.85
2022-09-09T23:21:41.900Z,18.52
2022-09-09T23:24:11.515Z,18.05
2022-09-09T23:26:38.627Z,18.58
2022-09-09T23:29:05.222Z,17.98
2022-09-09T23:31:37.743Z,18.65
2022-09-09T23:34:04.798Z,18.27
2022-09-09T23:36:31.534Z,18.00
2022-09-09T23:38:59.974Z,19.00
2022-09-09T23:41:26.972Z,18.08
2022-09-09T23:43:54.055Z,19.42
2022-09-09T23:46:29.657Z,19.45
2022-09-09T23:48:58.401Z,19.83
2022-09-09T23:51:28.095Z,18.35
2022-09-09T23:53:56.837Z,19.27
2022-09-09T23:56:26.204Z,19.35
2022-09-09T23:58:53.196Z,18.47
